»·PEaware :: SKY74 KSZT-65S

SKY74 :: KSZT-65S

FLIGHT INFORMATION

Flight Status: Arrived
Operator:
Sky High Charters
More flights by this operator :: More flights under this callsign
Pilot: Charles C. (26995)
Aircraft: MCDONNELL-DOUGLAS SKYTRAIN C-47
(DC3)
More flights by this aircraft type
Origin: KSZT Sandpoint
United States
Destination: 65S Boundary Co
United States
More flights between these airports :: More routes between these airports
Route: COE KARPS
File this flight plan on PilotEdge
Remarks:
Altitude:
(Current/Filed)
9,000ft
Speed:
(Current/Filed)
150kts
Departed: 28-Aug-20 08:18 AM
Arrived: 28-Aug-20 09:03 AM
Distance/Time
Traveled:
28nm/0:45
Distance/Time
To Go:
Arrived

Flight Plot

Page will automatically refresh every two minutes.

Flight plan parsing failed; only flown route is shown


Map Options




Map Legend


Flown Route
Filed Route
Departure Airport
Arrival Airport
Navaid (VOR, NDB)
Fix

Horizontal Profiles

Position Reports

Time Latitude Longitude Heading Altitude Ground
Speed
28-Aug-20 08:11 48.300662 -116.561175 89 2138ft 0kts
28-Aug-20 08:12 48.300662 -116.561175 89 2138ft 0kts
28-Aug-20 08:13 48.300662 -116.561174 89 2138ft 0kts
28-Aug-20 08:15 48.300662 -116.561174 89 2138ft 0kts
28-Aug-20 08:16 48.300662 -116.561174 89 2138ft 0kts
28-Aug-20 08:17 48.300587 -116.560613 181 2138ft 7kts
28-Aug-20 08:18 48.296829 -116.562712 210 2137ft 50kts
28-Aug-20 08:19 48.293445 -116.565718 2 2134ft 0kts
28-Aug-20 08:20 48.293672 -116.565647 27 2134ft 0kts
28-Aug-20 08:21 48.296056 -116.563419 30 2137ft 68kts
28-Aug-20 08:22 48.317081 -116.535075 104 2749ft 116kts
28-Aug-20 08:23 48.291256 -116.537345 218 3337ft 119kts
28-Aug-20 08:24 48.266333 -116.569052 222 4028ft 113kts
28-Aug-20 08:25 48.238131 -116.591966 188 4485ft 126kts
28-Aug-20 08:26 48.204993 -116.605262 189 5147ft 122kts
28-Aug-20 08:27 48.172435 -116.622328 207 5725ft 123kts
28-Aug-20 08:28 48.139998 -116.639856 199 6305ft 121kts
28-Aug-20 08:29 48.108439 -116.655883 198 6966ft 116kts
28-Aug-20 08:30 48.079507 -116.670181 197 7860ft 109kts
28-Aug-20 08:31 48.050519 -116.684182 197 8634ft 111kts
28-Aug-20 08:31 48.023953 -116.696714 197 8955ft 137kts
28-Aug-20 08:33 47.976551 -116.701823 123 8943ft 169kts
28-Aug-20 08:33 47.992906 -116.656056 35 8946ft 174kts
28-Aug-20 08:34 48.035695 -116.624477 23 8939ft 167kts
28-Aug-20 08:36 48.084236 -116.592022 23 8937ft 161kts
28-Aug-20 08:36 48.118301 -116.569146 23 8936ft 160kts
28-Aug-20 08:37 48.158752 -116.541941 23 8933ft 159kts
28-Aug-20 08:38 48.199055 -116.514780 23 8934ft 159kts
28-Aug-20 08:39 48.238062 -116.488455 23 8930ft 146kts
28-Aug-20 08:40 48.273724 -116.464351 23 8932ft 135kts
28-Aug-20 08:41 48.307044 -116.441801 23 8932ft 128kts
28-Aug-20 08:42 48.339522 -116.432176 354 8596ft 132kts
28-Aug-20 08:43 48.382193 -116.438555 353 7494ft 170kts
28-Aug-20 08:44 48.431501 -116.446244 353 6216ft 186kts
28-Aug-20 08:45 48.480279 -116.454076 351 5728ft 154kts
28-Aug-20 08:46 48.516362 -116.443529 40 5434ft 126kts
28-Aug-20 08:47 48.545269 -116.420017 21 5279ft 110kts
28-Aug-20 08:48 48.574568 -116.404198 19 5219ft 111kts
28-Aug-20 08:49 48.602879 -116.384476 16 4813ft 113kts
28-Aug-20 08:50 48.630653 -116.367106 19 4349ft 109kts
28-Aug-20 08:51 48.659844 -116.356078 9 3741ft 103kts
28-Aug-20 08:52 48.687303 -116.350737 11 3212ft 99kts
28-Aug-20 08:53 48.709907 -116.329234 37 2762ft 95kts
28-Aug-20 08:54 48.721331 -116.301034 118 2716ft 86kts
28-Aug-20 08:55 48.700756 -116.305808 186 3195ft 93kts
28-Aug-20 08:56 48.694535 -116.320189 20 3328ft 109kts
28-Aug-20 08:57 48.720272 -116.303026 27 2830ft 91kts
28-Aug-20 08:58 48.717631 -116.302729 183 2684ft 93kts
28-Aug-20 08:59 48.692695 -116.310379 188 3245ft 94kts
28-Aug-20 09:00 48.693598 -116.322651 22 3085ft 104kts
28-Aug-20 09:01 48.717959 -116.304693 41 2391ft 78kts
28-Aug-20 09:02 48.726503 -116.295872 10 2317ft 0kts

Navigation Log

Ident Type
Flight plan parsing failed, navigation log unavailable